sensor_id;sensor_type;location;lat;lon;timestamp;temperature;humidity
23669;DHT22;12011;47.422;15.018;2023-08-30T00:00:17;11.90;99.90
23669;DHT22;12011;47.422;15.018;2023-08-30T00:02:47;11.90;99.90
23669;DHT22;12011;47.422;15.018;2023-08-30T00:05:18;12.00;99.90
23669;DHT22;12011;47.422;15.018;2023-08-30T00:07:47;11.90;99.90
23669;DHT22;12011;47.422;15.018;2023-08-30T00:10:20;12.00;99.90
23669;DHT22;12011;47.422;15.018;2023-08-30T00:12:49;12.00;99.90
23669;DHT22;12011;47.422;15.018;2023-08-30T00:15:21;11.90;99.90
23669;DHT22;12011;47.422;15.018;2023-08-30T00:17:51;12.00;99.90
23669;DHT22;12011;47.422;15.018;2023-08-30T00:20:21;11.90;99.90
23669;DHT22;12011;47.422;15.018;2023-08-30T00:22:50;11.90;99.90
23669;DHT22;12011;47.422;15.018;2023-08-30T00:25:23;12.00;99.90
23669;DHT22;12011;47.422;15.018;2023-08-30T00:27:52;12.00;99.90
23669;DHT22;12011;47.422;15.018;2023-08-30T00:30:22;12.00;99.90
23669;DHT22;12011;47.422;15.018;2023-08-30T00:32:51;12.00;99.90
23669;DHT22;12011;47.422;15.018;2023-08-30T00:35:21;12.00;99.90
23669;DHT22;12011;47.422;15.018;2023-08-30T00:37:50;11.90;99.90
23669;DHT22;12011;47.422;15.018;2023-08-30T00:40:26;12.00;99.90
23669;DHT22;12011;47.422;15.018;2023-08-30T00:42:59;11.90;99.90
23669;DHT22;12011;47.422;15.018;2023-08-30T00:45:29;11.90;99.90
23669;DHT22;12011;47.422;15.018;2023-08-30T00:47:58;11.90;99.90
23669;DHT22;12011;47.422;15.018;2023-08-30T00:50:30;11.90;99.90
23669;DHT22;12011;47.422;15.018;2023-08-30T00:53:00;11.90;99.90
23669;DHT22;12011;47.422;15.018;2023-08-30T00:55:37;11.90;99.90
23669;DHT22;12011;47.422;15.018;2023-08-30T00:58:08;11.90;99.90
23669;DHT22;12011;47.422;15.018;2023-08-30T01:00:40;11.90;99.90
23669;DHT22;12011;47.422;15.018;2023-08-30T01:03:12;11.90;99.90
23669;DHT22;12011;47.422;15.018;2023-08-30T01:05:43;11.90;99.90
23669;DHT22;12011;47.422;15.018;2023-08-30T01:08:12;11.90;99.90
23669;DHT22;12011;47.422;15.018;2023-08-30T01:10:56;11.90;99.90
23669;DHT22;12011;47.422;15.018;2023-08-30T01:13:40;11.90;99.90
23669;DHT22;12011;47.422;15.018;2023-08-30T01:16:17;11.90;99.90
23669;DHT22;12011;47.422;15.018;2023-08-30T01:18:56;11.90;99.90
23669;DHT22;12011;47.422;15.018;2023-08-30T01:21:36;11.90;99.90
23669;DHT22;12011;47.422;15.018;2023-08-30T01:24:26;12.00;99.90
23669;DHT22;12011;47.422;15.018;2023-08-30T01:27:15;12.00;99.90
23669;DHT22;12011;47.422;15.018;2023-08-30T01:29:47;11.90;99.90
23669;DHT22;12011;47.422;15.018;2023-08-30T01:32:19;11.90;99.90
23669;DHT22;12011;47.422;15.018;2023-08-30T01:34:51;11.90;99.90
23669;DHT22;12011;47.422;15.018;2023-08-30T01:37:22;11.90;99.90
23669;DHT22;12011;47.422;15.018;2023-08-30T01:39:52;11.90;99.90
23669;DHT22;12011;47.422;15.018;2023-08-30T01:42:28;11.90;99.90
23669;DHT22;12011;47.422;15.018;2023-08-30T01:45:04;11.90;99.90
23669;DHT22;12011;47.422;15.018;2023-08-30T01:47:36;11.90;99.90
23669;DHT22;12011;47.422;15.018;2023-08-30T01:50:07;11.90;99.90
23669;DHT22;12011;47.422;15.018;2023-08-30T01:52:41;11.90;99.90
23669;DHT22;12011;47.422;15.018;2023-08-30T01:55:14;11.90;99.90
23669;DHT22;12011;47.422;15.018;2023-08-30T01:57:46;11.90;99.90
23669;DHT22;12011;47.422;15.018;2023-08-30T02:00:16;11.90;99.90
23669;DHT22;12011;47.422;15.018;2023-08-30T02:02:47;11.80;99.90
23669;DHT22;12011;47.422;15.018;2023-08-30T02:05:17;11.90;99.90
23669;DHT22;12011;47.422;15.018;2023-08-30T02:07:54;11.90;99.90
23669;DHT22;12011;47.422;15.018;2023-08-30T02:10:31;11.90;99.90
23669;DHT22;12011;47.422;15.018;2023-08-30T02:13:06;11.90;99.90
23669;DHT22;12011;47.422;15.018;2023-08-30T02:15:38;11.80;99.90
23669;DHT22;12011;47.422;15.018;2023-08-30T02:18:11;11.80;99.90
23669;DHT22;12011;47.422;15.018;2023-08-30T02:20:40;11.80;99.90
23669;DHT22;12011;47.422;15.018;2023-08-30T02:23:10;11.80;99.90
23669;DHT22;12011;47.422;15.018;2023-08-30T02:25:40;11.80;99.90
23669;DHT22;12011;47.422;15.018;2023-08-30T02:28:12;11.80;99.90
23669;DHT22;12011;47.422;15.018;2023-08-30T02:30:44;11.80;99.90
23669;DHT22;12011;47.422;15.018;2023-08-30T02:33:16;11.80;99.90
23669;DHT22;12011;47.422;15.018;2023-08-30T02:35:46;11.80;99.90
23669;DHT22;12011;47.422;15.018;2023-08-30T02:38:19;11.70;99.90
23669;DHT22;12011;47.422;15.018;2023-08-30T02:40:48;11.70;99.90
23669;DHT22;12011;47.422;15.018;2023-08-30T02:43:22;11.70;99.90
23669;DHT22;12011;47.422;15.018;2023-08-30T02:45:52;11.70;99.90
23669;DHT22;12011;47.422;15.018;2023-08-30T02:48:23;11.70;99.90
23669;DHT22;12011;47.422;15.018;2023-08-30T02:50:53;11.60;99.90
23669;DHT22;12011;47.422;15.018;2023-08-30T02:53:23;11.70;99.90
23669;DHT22;12011;47.422;15.018;2023-08-30T02:55:53;11.60;99.90
23669;DHT22;12011;47.422;15.018;2023-08-30T02:58:27;11.60;99.90
23669;DHT22;12011;47.422;15.018;2023-08-30T03:01:00;11.60;99.90
23669;DHT22;12011;47.422;15.018;2023-08-30T03:03:30;11.60;99.90
23669;DHT22;12011;47.422;15.018;2023-08-30T03:06:01;11.60;99.90
23669;DHT22;12011;47.422;15.018;2023-08-30T03:08:32;11.60;99.90
23669;DHT22;12011;47.422;15.018;2023-08-30T03:11:09;11.60;99.90
23669;DHT22;12011;47.422;15.018;2023-08-30T03:14:01;11.70;99.90
23669;DHT22;12011;47.422;15.018;2023-08-30T03:16:31;11.70;99.90
23669;DHT22;12011;47.422;15.018;2023-08-30T03:19:02;11.70;99.90
23669;DHT22;12011;47.422;15.018;2023-08-30T03:21:31;11.70;99.90
23669;DHT22;12011;47.422;15.018;2023-08-30T03:24:03;11.60;99.90
23669;DHT22;12011;47.422;15.018;2023-08-30T03:26:35;11.60;99.90
23669;DHT22;12011;47.422;15.018;2023-08-30T03:29:09;11.60;99.90
23669;DHT22;12011;47.422;15.018;2023-08-30T03:31:40;11.60;99.90
23669;DHT22;12011;47.422;15.018;2023-08-30T03:34:11;11.70;99.90
23669;DHT22;12011;47.422;15.018;2023-08-30T03:36:41;11.70;99.90
23669;DHT22;12011;47.422;15.018;2023-08-30T03:39:16;11.70;99.90
23669;DHT22;12011;47.422;15.018;2023-08-30T03:41:46;11.70;99.90
23669;DHT22;12011;47.422;15.018;2023-08-30T03:44:19;11.70;99.90
23669;DHT22;12011;47.422;15.018;2023-08-30T03:46:48;11.70;99.90
23669;DHT22;12011;47.422;15.018;2023-08-30T03:49:19;11.70;99.90
23669;DHT22;12011;47.422;15.018;2023-08-30T03:51:49;11.70;99.90
23669;DHT22;12011;47.422;15.018;2023-08-30T03:54:18;11.70;99.90
23669;DHT22;12011;47.422;15.018;2023-08-30T03:56:48;11.70;99.90
23669;DHT22;12011;47.422;15.018;2023-08-30T03:59:20;11.70;99.90
23669;DHT22;12011;47.422;15.018;2023-08-30T04:01:53;11.70;99.90
23669;DHT22;12011;47.422;15.018;2023-08-30T04:04:23;11.70;99.90
23669;DHT22;12011;47.422;15.018;2023-08-30T04:06:52;11.70;99.90
23669;DHT22;12011;47.422;15.018;2023-08-30T04:09:22;11.70;99.90
23669;DHT22;12011;47.422;15.018;2023-08-30T04:11:51;11.70;99.90
23669;DHT22;12011;47.422;15.018;2023-08-30T04:14:25;11.60;99.90
23669;DHT22;12011;47.422;15.018;2023-08-30T04:16:54;11.60;99.90
23669;DHT22;12011;47.422;15.018;2023-08-30T04:19:24;11.60;99.90
23669;DHT22;12011;47.422;15.018;2023-08-30T04:21:54;11.60;99.90
23669;DHT22;12011;47.422;15.018;2023-08-30T04:24:23;11.60;99.90
23669;DHT22;12011;47.422;15.018;2023-08-30T04:26:53;11.70;99.90
23669;DHT22;12011;47.422;15.018;2023-08-30T04:29:25;11.70;99.90
23669;DHT22;12011;47.422;15.018;2023-08-30T04:31:59;11.70;99.90
23669;DHT22;12011;47.422;15.018;2023-08-30T04:34:29;11.70;99.90
23669;DHT22;12011;47.422;15.018;2023-08-30T04:37:00;11.60;99.90
23669;DHT22;12011;47.422;15.018;2023-08-30T04:39:30;11.70;99.90
23669;DHT22;12011;47.422;15.018;2023-08-30T04:41:59;11.70;99.90
23669;DHT22;12011;47.422;15.018;2023-08-30T04:44:32;11.70;99.90
23669;DHT22;12011;47.422;15.018;2023-08-30T04:47:01;11.80;99.90
23669;DHT22;12011;47.422;15.018;2023-08-30T04:49:34;11.80;99.90
23669;DHT22;12011;47.422;15.018;2023-08-30T04:52:05;11.80;99.90
23669;DHT22;12011;47.422;15.018;2023-08-30T04:54:35;11.90;99.90
23669;DHT22;12011;47.422;15.018;2023-08-30T04:57:07;11.80;99.90
23669;DHT22;12011;47.422;15.018;2023-08-30T04:59:44;11.90;99.90
23669;DHT22;12011;47.422;15.018;2023-08-30T05:02:13;11.90;99.90
23669;DHT22;12011;47.422;15.018;2023-08-30T05:04:59;11.90;99.90
23669;DHT22;12011;47.422;15.018;2023-08-30T05:07:30;11.90;99.90
23669;DHT22;12011;47.422;15.018;2023-08-30T05:09:59;11.90;99.90
23669;DHT22;12011;47.422;15.018;2023-08-30T05:12:29;12.00;99.90
23669;DHT22;12011;47.422;15.018;2023-08-30T05:15:02;12.00;99.90
23669;DHT22;12011;47.422;15.018;2023-08-30T05:17:32;12.00;99.90
23669;DHT22;12011;47.422;15.018;2023-08-30T05:20:03;12.00;99.90
23669;DHT22;12011;47.422;15.018;2023-08-30T05:22:34;12.00;99.90
23669;DHT22;12011;47.422;15.018;2023-08-30T05:25:04;11.90;99.90
23669;DHT22;12011;47.422;15.018;2023-08-30T05:27:34;11.90;99.90
23669;DHT22;12011;47.422;15.018;2023-08-30T05:30:07;11.90;99.90
23669;DHT22;12011;47.422;15.018;2023-08-30T05:32:38;11.90;99.90
23669;DHT22;12011;47.422;15.018;2023-08-30T05:35:28;11.90;99.90
23669;DHT22;12011;47.422;15.018;2023-08-30T05:38:24;11.90;99.90
23669;DHT22;12011;47.422;15.018;2023-08-30T05:41:14;12.00;99.90
23669;DHT22;12011;47.422;15.018;2023-08-30T05:43:44;12.00;99.90
23669;DHT22;12011;47.422;15.018;2023-08-30T05:46:17;12.00;99.90
23669;DHT22;12011;47.422;15.018;2023-08-30T05:48:46;12.10;99.90
23669;DHT22;12011;47.422;15.018;2023-08-30T05:51:16;12.20;99.90
23669;DHT22;12011;47.422;15.018;2023-08-30T05:53:46;12.20;99.90
23669;DHT22;12011;47.422;15.018;2023-08-30T05:56:16;12.20;99.90
23669;DHT22;12011;47.422;15.018;2023-08-30T05:58:46;12.30;99.90
23669;DHT22;12011;47.422;15.018;2023-08-30T06:01:19;12.40;99.90
23669;DHT22;12011;47.422;15.018;2023-08-30T06:03:49;12.40;99.90
23669;DHT22;12011;47.422;15.018;2023-08-30T06:06:18;12.50;99.90
23669;DHT22;12011;47.422;15.018;2023-08-30T06:08:48;12.70;99.90
23669;DHT22;12011;47.422;15.018;2023-08-30T06:11:17;12.80;99.90
23669;DHT22;12011;47.422;15.018;2023-08-30T06:13:47;12.90;99.90
23669;DHT22;12011;47.422;15.018;2023-08-30T06:16:19;13.00;99.90
23669;DHT22;12011;47.422;15.018;2023-08-30T06:18:49;13.10;99.90
23669;DHT22;12011;47.422;15.018;2023-08-30T06:21:18;13.20;99.90
23669;DHT22;12011;47.422;15.018;2023-08-30T06:23:48;13.30;99.90
23669;DHT22;12011;47.422;15.018;2023-08-30T06:26:18;13.40;99.90
23669;DHT22;12011;47.422;15.018;2023-08-30T06:28:48;13.60;99.90
23669;DHT22;12011;47.422;15.018;2023-08-30T06:31:20;13.80;99.90
23669;DHT22;12011;47.422;15.018;2023-08-30T06:33:50;13.90;99.90
23669;DHT22;12011;47.422;15.018;2023-08-30T06:36:19;14.00;99.90
23669;DHT22;12011;47.422;15.018;2023-08-30T06:38:49;14.10;99.90
23669;DHT22;12011;47.422;15.018;2023-08-30T06:41:19;14.40;99.90
23669;DHT22;12011;47.422;15.018;2023-08-30T06:43:49;14.50;99.90
23669;DHT22;12011;47.422;15.018;2023-08-30T06:46:22;14.70;99.90
23669;DHT22;12011;47.422;15.018;2023-08-30T06:48:52;14.60;99.90
23669;DHT22;12011;47.422;15.018;2023-08-30T06:51:21;14.80;99.90
23669;DHT22;12011;47.422;15.018;2023-08-30T06:53:51;15.10;99.90
23669;DHT22;12011;47.422;15.018;2023-08-30T06:56:21;15.60;99.90
23669;DHT22;12011;47.422;15.018;2023-08-30T06:58:51;15.80;99.90
23669;DHT22;12011;47.422;15.018;2023-08-30T07:01:23;16.10;99.90
23669;DHT22;12011;47.422;15.018;2023-08-30T07:03:52;16.30;99.90
23669;DHT22;12011;47.422;15.018;2023-08-30T07:06:22;16.50;99.90
23669;DHT22;12011;47.422;15.018;2023-08-30T07:08:56;16.90;99.90
23669;DHT22;12011;47.422;15.018;2023-08-30T07:11:25;17.50;99.90
23669;DHT22;12011;47.422;15.018;2023-08-30T07:13:55;17.90;99.90
23669;DHT22;12011;47.422;15.018;2023-08-30T07:16:27;18.20;99.90
23669;DHT22;12011;47.422;15.018;2023-08-30T07:18:58;19.10;99.90
23669;DHT22;12011;47.422;15.018;2023-08-30T07:21:28;21.40;97.60
23669;DHT22;12011;47.422;15.018;2023-08-30T07:23:59;21.50;91.70
23669;DHT22;12011;47.422;15.018;2023-08-30T07:26:28;22.50;74.00
23669;DHT22;12011;47.422;15.018;2023-08-30T07:28:58;21.80;81.50
23669;DHT22;12011;47.422;15.018;2023-08-30T07:31:30;21.40;86.70
23669;DHT22;12011;47.422;15.018;2023-08-30T07:34:00;20.90;76.30
23669;DHT22;12011;47.422;15.018;2023-08-30T07:36:30;20.30;87.40
23669;DHT22;12011;47.422;15.018;2023-08-30T07:39:00;20.10;92.10
23669;DHT22;12011;47.422;15.018;2023-08-30T07:41:29;20.20;90.40
23669;DHT22;12011;47.422;15.018;2023-08-30T07:44:00;19.90;88.60
23669;DHT22;12011;47.422;15.018;2023-08-30T07:46:32;19.80;90.50
23669;DHT22;12011;47.422;15.018;2023-08-30T07:49:03;19.40;91.20
23669;DHT22;12011;47.422;15.018;2023-08-30T07:51:33;19.10;94.60
23669;DHT22;12011;47.422;15.018;2023-08-30T07:54:03;18.90;95.60
23669;DHT22;12011;47.422;15.018;2023-08-30T07:56:33;18.80;94.10
23669;DHT22;12011;47.422;15.018;2023-08-30T07:59:03;18.80;94.00
23669;DHT22;12011;47.422;15.018;2023-08-30T08:01:35;19.00;93.60
23669;DHT22;12011;47.422;15.018;2023-08-30T08:04:05;19.60;93.00
23669;DHT22;12011;47.422;15.018;2023-08-30T08:06:35;19.90;91.10
23669;DHT22;12011;47.422;15.018;2023-08-30T08:09:05;20.40;89.00
23669;DHT22;12011;47.422;15.018;2023-08-30T08:11:34;22.10;75.80
23669;DHT22;12011;47.422;15.018;2023-08-30T08:14:06;22.40;67.20
23669;DHT22;12011;47.422;15.018;2023-08-30T08:16:38;22.10;63.10
23669;DHT22;12011;47.422;15.018;2023-08-30T08:19:07;21.90;64.70
23669;DHT22;12011;47.422;15.018;2023-08-30T08:21:38;21.60;63.10
23669;DHT22;12011;47.422;15.018;2023-08-30T08:24:08;22.10;61.90
23669;DHT22;12011;47.422;15.018;2023-08-30T08:26:39;22.70;63.60
23669;DHT22;12011;47.422;15.018;2023-08-30T08:29:09;22.80;61.50
23669;DHT22;12011;47.422;15.018;2023-08-30T08:31:42;22.80;70.20
23669;DHT22;12011;47.422;15.018;2023-08-30T08:34:12;22.50;63.40
23669;DHT22;12011;47.422;15.018;2023-08-30T08:36:42;22.20;59.80
23669;DHT22;12011;47.422;15.018;2023-08-30T08:39:12;23.20;80.60
23669;DHT22;12011;47.422;15.018;2023-08-30T08:41:45;24.00;61.80
23669;DHT22;12011;47.422;15.018;2023-08-30T08:44:16;23.60;55.40
23669;DHT22;12011;47.422;15.018;2023-08-30T08:46:49;23.20;58.80
23669;DHT22;12011;47.422;15.018;2023-08-30T08:49:19;22.60;61.20
23669;DHT22;12011;47.422;15.018;2023-08-30T08:51:49;22.20;61.30
23669;DHT22;12011;47.422;15.018;2023-08-30T08:54:19;21.80;76.90
23669;DHT22;12011;47.422;15.018;2023-08-30T08:56:50;21.70;65.60
23669;DHT22;12011;47.422;15.018;2023-08-30T08:59:21;21.40;63.60
23669;DHT22;12011;47.422;15.018;2023-08-30T09:01:54;21.40;63.50
23669;DHT22;12011;47.422;15.018;2023-08-30T09:04:24;21.60;82.90
23669;DHT22;12011;47.422;15.018;2023-08-30T09:06:55;21.50;59.90
23669;DHT22;12011;47.422;15.018;2023-08-30T09:09:25;21.30;65.60
23669;DHT22;12011;47.422;15.018;2023-08-30T09:11:54;21.40;58.70
23669;DHT22;12011;47.422;15.018;2023-08-30T09:14:24;21.50;62.10
23669;DHT22;12011;47.422;15.018;2023-08-30T09:17:00;21.60;60.90
23669;DHT22;12011;47.422;15.018;2023-08-30T09:19:31;21.20;60.20
23669;DHT22;12011;47.422;15.018;2023-08-30T09:22:01;21.30;70.70
23669;DHT22;12011;47.422;15.018;2023-08-30T09:24:38;21.00;65.60
23669;DHT22;12011;47.422;15.018;2023-08-30T09:27:08;20.70;64.60
23669;DHT22;12011;47.422;15.018;2023-08-30T09:29:37;20.50;68.50
23669;DHT22;12011;47.422;15.018;2023-08-30T09:32:12;20.50;70.30
23669;DHT22;12011;47.422;15.018;2023-08-30T09:34:46;20.40;68.70
23669;DHT22;12011;47.422;15.018;2023-08-30T09:37:20;20.70;69.50
23669;DHT22;12011;47.422;15.018;2023-08-30T09:39:50;21.80;57.50
23669;DHT22;12011;47.422;15.018;2023-08-30T09:42:20;22.60;63.00
23669;DHT22;12011;47.422;15.018;2023-08-30T09:44:49;23.60;56.80
23669;DHT22;12011;47.422;15.018;2023-08-30T09:47:24;24.60;54.50
23669;DHT22;12011;47.422;15.018;2023-08-30T09:49:56;24.90;51.50
23669;DHT22;12011;47.422;15.018;2023-08-30T09:52:30;24.60;49.60
23669;DHT22;12011;47.422;15.018;2023-08-30T09:55:02;25.60;55.70
23669;DHT22;12011;47.422;15.018;2023-08-30T09:57:33;25.70;50.90
23669;DHT22;12011;47.422;15.018;2023-08-30T10:00:05;25.70;45.60
23669;DHT22;12011;47.422;15.018;2023-08-30T10:02:42;25.30;49.30
23669;DHT22;12011;47.422;15.018;2023-08-30T10:05:13;25.10;47.90
23669;DHT22;12011;47.422;15.018;2023-08-30T10:07:44;24.40;47.10
23669;DHT22;12011;47.422;15.018;2023-08-30T10:10:14;23.90;48.30
23669;DHT22;12011;47.422;15.018;2023-08-30T10:12:46;23.50;49.20
23669;DHT22;12011;47.422;15.018;2023-08-30T10:15:16;22.40;52.70
23669;DHT22;12011;47.422;15.018;2023-08-30T10:17:53;22.70;53.80
23669;DHT22;12011;47.422;15.018;2023-08-30T10:20:23;23.10;52.80
23669;DHT22;12011;47.422;15.018;2023-08-30T10:22:56;23.80;54.40
23669;DHT22;12011;47.422;15.018;2023-08-30T10:25:30;23.90;50.40
23669;DHT22;12011;47.422;15.018;2023-08-30T10:28:02;25.00;49.40
23669;DHT22;12011;47.422;15.018;2023-08-30T10:30:32;24.80;44.50
23669;DHT22;12011;47.422;15.018;2023-08-30T10:33:11;25.00;46.90
23669;DHT22;12011;47.422;15.018;2023-08-30T10:35:49;24.60;50.70
23669;DHT22;12011;47.422;15.018;2023-08-30T10:38:25;24.10;47.90
23669;DHT22;12011;47.422;15.018;2023-08-30T10:40:58;24.30;50.40
23669;DHT22;12011;47.422;15.018;2023-08-30T10:43:36;24.00;45.70
23669;DHT22;12011;47.422;15.018;2023-08-30T10:46:07;24.90;50.40
23669;DHT22;12011;47.422;15.018;2023-08-30T10:48:41;24.80;45.30
23669;DHT22;12011;47.422;15.018;2023-08-30T10:51:21;25.10;50.00
23669;DHT22;12011;47.422;15.018;2023-08-30T10:53:58;24.60;50.10
23669;DHT22;12011;47.422;15.018;2023-08-30T10:56:28;23.10;45.50
23669;DHT22;12011;47.422;15.018;2023-08-30T10:59:02;22.80;47.70
23669;DHT22;12011;47.422;15.018;2023-08-30T11:01:33;22.90;51.60
23669;DHT22;12011;47.422;15.018;2023-08-30T11:04:07;22.60;50.40
23669;DHT22;12011;47.422;15.018;2023-08-30T11:06:39;21.90;52.60
23669;DHT22;12011;47.422;15.018;2023-08-30T11:09:09;21.30;56.50
23669;DHT22;12011;47.422;15.018;2023-08-30T11:11:41;20.60;59.90
23669;DHT22;12011;47.422;15.018;2023-08-30T11:14:15;20.70;63.30
23669;DHT22;12011;47.422;15.018;2023-08-30T11:16:46;20.50;58.50
23669;DHT22;12011;47.422;15.018;2023-08-30T11:19:20;20.50;58.50
23669;DHT22;12011;47.422;15.018;2023-08-30T11:21:49;20.40;65.00
23669;DHT22;12011;47.422;15.018;2023-08-30T11:24:23;20.60;62.30
23669;DHT22;12011;47.422;15.018;2023-08-30T11:26:53;20.40;58.80
23669;DHT22;12011;47.422;15.018;2023-08-30T11:29:23;20.60;61.80
23669;DHT22;12011;47.422;15.018;2023-08-30T11:31:55;21.40;61.50
23669;DHT22;12011;47.422;15.018;2023-08-30T11:34:27;22.40;55.90
23669;DHT22;12011;47.422;15.018;2023-08-30T11:36:59;22.80;55.90
23669;DHT22;12011;47.422;15.018;2023-08-30T11:39:31;22.50;52.30
23669;DHT22;12011;47.422;15.018;2023-08-30T11:42:04;22.60;56.20
23669;DHT22;12011;47.422;15.018;2023-08-30T11:44:36;22.40;51.00
23669;DHT22;12011;47.422;15.018;2023-08-30T11:47:06;22.40;52.50
23669;DHT22;12011;47.422;15.018;2023-08-30T11:49:39;22.20;52.30
23669;DHT22;12011;47.422;15.018;2023-08-30T11:52:09;22.40;54.30
23669;DHT22;12011;47.422;15.018;2023-08-30T11:54:42;22.20;55.70
23669;DHT22;12011;47.422;15.018;2023-08-30T11:57:12;22.40;55.20
23669;DHT22;12011;47.422;15.018;2023-08-30T11:59:42;22.40;56.70
23669;DHT22;12011;47.422;15.018;2023-08-30T12:02:13;21.50;55.10
23669;DHT22;12011;47.422;15.018;2023-08-30T12:04:47;21.30;58.40
23669;DHT22;12011;47.422;15.018;2023-08-30T12:07:23;21.30;55.40
23669;DHT22;12011;47.422;15.018;2023-08-30T12:10:04;21.30;51.70
23669;DHT22;12011;47.422;15.018;2023-08-30T12:12:34;20.80;57.50
23669;DHT22;12011;47.422;15.018;2023-08-30T12:15:08;20.70;55.90
23669;DHT22;12011;47.422;15.018;2023-08-30T12:17:38;20.20;60.20
23669;DHT22;12011;47.422;15.018;2023-08-30T12:20:18;19.80;59.80
23669;DHT22;12011;47.422;15.018;2023-08-30T12:22:50;19.70;60.00
23669;DHT22;12011;47.422;15.018;2023-08-30T12:25:20;20.00;66.70
23669;DHT22;12011;47.422;15.018;2023-08-30T12:27:52;20.20;63.20
23669;DHT22;12011;47.422;15.018;2023-08-30T12:30:22;19.80;67.70
23669;DHT22;12011;47.422;15.018;2023-08-30T12:33:00;19.70;63.90
23669;DHT22;12011;47.422;15.018;2023-08-30T12:35:33;20.00;64.20
23669;DHT22;12011;47.422;15.018;2023-08-30T12:38:03;19.80;64.60
23669;DHT22;12011;47.422;15.018;2023-08-30T12:40:33;20.20;67.90
23669;DHT22;12011;47.422;15.018;2023-08-30T12:43:03;20.30;58.40
23669;DHT22;12011;47.422;15.018;2023-08-30T12:45:32;20.70;63.90
23669;DHT22;12011;47.422;15.018;2023-08-30T12:48:02;20.80;58.40
23669;DHT22;12011;47.422;15.018;2023-08-30T12:50:35;20.40;61.10
23669;DHT22;12011;47.422;15.018;2023-08-30T12:53:06;20.50;56.20
23669;DHT22;12011;47.422;15.018;2023-08-30T12:55:36;20.60;62.10
23669;DHT22;12011;47.422;15.018;2023-08-30T12:58:07;20.40;61.60
23669;DHT22;12011;47.422;15.018;2023-08-30T13:00:38;20.50;61.80
23669;DHT22;12011;47.422;15.018;2023-08-30T13:03:07;20.80;61.10
23669;DHT22;12011;47.422;15.018;2023-08-30T13:05:39;20.70;63.20
23669;DHT22;12011;47.422;15.018;2023-08-30T13:08:09;20.30;58.60
23669;DHT22;12011;47.422;15.018;2023-08-30T13:10:39;20.30;56.70
23669;DHT22;12011;47.422;15.018;2023-08-30T13:13:10;20.40;60.40
23669;DHT22;12011;47.422;15.018;2023-08-30T13:15:39;20.20;60.60
23669;DHT22;12011;47.422;15.018;2023-08-30T13:18:09;19.90;65.60
23669;DHT22;12011;47.422;15.018;2023-08-30T13:20:41;19.70;62.30
23669;DHT22;12011;47.422;15.018;2023-08-30T13:23:11;19.50;67.10
23669;DHT22;12011;47.422;15.018;2023-08-30T13:25:41;19.70;63.30
23669;DHT22;12011;47.422;15.018;2023-08-30T13:28:10;19.70;57.80
23669;DHT22;12011;47.422;15.018;2023-08-30T13:30:44;19.30;62.40
23669;DHT22;12011;47.422;15.018;2023-08-30T13:33:16;19.20;62.30
23669;DHT22;12011;47.422;15.018;2023-08-30T13:35:52;19.30;64.40
23669;DHT22;12011;47.422;15.018;2023-08-30T13:38:22;19.40;62.10
23669;DHT22;12011;47.422;15.018;2023-08-30T13:40:58;19.60;68.80
23669;DHT22;12011;47.422;15.018;2023-08-30T13:43:30;19.50;63.00
23669;DHT22;12011;47.422;15.018;2023-08-30T13:46:00;19.40;58.90
23669;DHT22;12011;47.422;15.018;2023-08-30T13:48:30;18.90;66.20
23669;DHT22;12011;47.422;15.018;2023-08-30T13:51:03;19.00;67.30
23669;DHT22;12011;47.422;15.018;2023-08-30T13:53:32;18.70;68.20
23669;DHT22;12011;47.422;15.018;2023-08-30T13:56:02;18.40;66.60
23669;DHT22;12011;47.422;15.018;2023-08-30T13:58:31;18.10;72.80
23669;DHT22;12011;47.422;15.018;2023-08-30T14:01:03;18.10;75.70
23669;DHT22;12011;47.422;15.018;2023-08-30T14:03:32;18.20;75.20
23669;DHT22;12011;47.422;15.018;2023-08-30T14:06:05;18.00;82.20
23669;DHT22;12011;47.422;15.018;2023-08-30T14:08:35;17.80;75.50
23669;DHT22;12011;47.422;15.018;2023-08-30T14:11:05;18.00;80.20
23669;DHT22;12011;47.422;15.018;2023-08-30T14:13:35;18.00;81.70
23669;DHT22;12011;47.422;15.018;2023-08-30T14:16:04;17.90;71.40
23669;DHT22;12011;47.422;15.018;2023-08-30T14:18:35;17.80;71.80
23669;DHT22;12011;47.422;15.018;2023-08-30T14:21:07;17.90;73.50
23669;DHT22;12011;47.422;15.018;2023-08-30T14:23:37;17.70;78.90
23669;DHT22;12011;47.422;15.018;2023-08-30T14:26:07;18.00;75.10
23669;DHT22;12011;47.422;15.018;2023-08-30T14:28:39;18.20;72.10
23669;DHT22;12011;47.422;15.018;2023-08-30T14:31:09;18.30;70.00
23669;DHT22;12011;47.422;15.018;2023-08-30T14:33:43;18.50;72.00
23669;DHT22;12011;47.422;15.018;2023-08-30T14:36:16;18.30;77.60
23669;DHT22;12011;47.422;15.018;2023-08-30T14:38:45;18.40;71.10
23669;DHT22;12011;47.422;15.018;2023-08-30T14:41:15;18.20;73.60
23669;DHT22;12011;47.422;15.018;2023-08-30T14:43:45;17.80;68.20
23669;DHT22;12011;47.422;15.018;2023-08-30T14:46:14;17.70;71.20
23669;DHT22;12011;47.422;15.018;2023-08-30T14:48:45;18.10;72.90
23669;DHT22;12011;47.422;15.018;2023-08-30T14:51:18;17.80;71.10
23669;DHT22;12011;47.422;15.018;2023-08-30T14:53:47;17.90;73.50
23669;DHT22;12011;47.422;15.018;2023-08-30T14:56:17;17.90;69.50
23669;DHT22;12011;47.422;15.018;2023-08-30T14:58:46;18.00;80.70
23669;DHT22;12011;47.422;15.018;2023-08-30T15:01:17;18.10;74.60
23669;DHT22;12011;47.422;15.018;2023-08-30T15:03:46;18.00;79.00
23669;DHT22;12011;47.422;15.018;2023-08-30T15:06:19;18.00;72.60
23669;DHT22;12011;47.422;15.018;2023-08-30T15:08:49;17.80;73.00
23669;DHT22;12011;47.422;15.018;2023-08-30T15:11:19;18.00;74.50
23669;DHT22;12011;47.422;15.018;2023-08-30T15:13:48;17.80;83.10
23669;DHT22;12011;47.422;15.018;2023-08-30T15:16:18;17.90;77.70
23669;DHT22;12011;47.422;15.018;2023-08-30T15:18:47;17.80;77.10
23669;DHT22;12011;47.422;15.018;2023-08-30T15:21:20;17.60;73.30
23669;DHT22;12011;47.422;15.018;2023-08-30T15:23:49;17.60;77.30
23669;DHT22;12011;47.422;15.018;2023-08-30T15:26:19;17.40;77.30
23669;DHT22;12011;47.422;15.018;2023-08-30T15:28:48;17.50;71.30
23669;DHT22;12011;47.422;15.018;2023-08-30T15:31:18;17.70;74.70
23669;DHT22;12011;47.422;15.018;2023-08-30T15:33:48;17.70;81.20
23669;DHT22;12011;47.422;15.018;2023-08-30T15:36:20;17.80;71.00
23669;DHT22;12011;47.422;15.018;2023-08-30T15:38:50;17.80;71.30
23669;DHT22;12011;47.422;15.018;2023-08-30T15:41:19;17.80;69.90